sensor_id;sensor_type;location;lat;lon;timestamp;P1;durP1;ratioP1;P2;durP2;ratioP2
65373;SDS011;52070;53.760;9.678;2023-07-09T00:01:47;6.38;;;2.35;;
65373;SDS011;52070;53.760;9.678;2023-07-09T00:04:15;6.32;;;2.88;;
65373;SDS011;52070;53.760;9.678;2023-07-09T00:06:43;3.92;;;2.42;;
65373;SDS011;52070;53.760;9.678;2023-07-09T00:09:13;6.55;;;2.13;;
65373;SDS011;52070;53.760;9.678;2023-07-09T00:11:41;5.57;;;2.45;;
65373;SDS011;52070;53.760;9.678;2023-07-09T00:14:09;6.53;;;2.38;;
65373;SDS011;52070;53.760;9.678;2023-07-09T00:16:37;11.18;;;2.40;;
65373;SDS011;52070;53.760;9.678;2023-07-09T00:19:05;3.50;;;2.38;;
65373;SDS011;52070;53.760;9.678;2023-07-09T00:21:39;8.23;;;2.30;;
65373;SDS011;52070;53.760;9.678;2023-07-09T00:24:06;4.57;;;2.50;;
65373;SDS011;52070;53.760;9.678;2023-07-09T00:26:37;4.63;;;2.40;;
65373;SDS011;52070;53.760;9.678;2023-07-09T00:29:07;7.20;;;2.53;;
65373;SDS011;52070;53.760;9.678;2023-07-09T00:31:36;4.68;;;2.60;;
65373;SDS011;52070;53.760;9.678;2023-07-09T00:34:04;5.55;;;2.35;;
65373;SDS011;52070;53.760;9.678;2023-07-09T00:36:31;7.38;;;2.42;;
65373;SDS011;52070;53.760;9.678;2023-07-09T00:38:58;5.93;;;2.33;;
65373;SDS011;52070;53.760;9.678;2023-07-09T00:41:31;4.47;;;2.63;;
65373;SDS011;52070;53.760;9.678;2023-07-09T00:44:13;9.87;;;2.67;;
65373;SDS011;52070;53.760;9.678;2023-07-09T00:49:52;5.80;;;2.22;;
65373;SDS011;52070;53.760;9.678;2023-07-09T00:52:31;4.32;;;2.28;;
65373;SDS011;52070;53.760;9.678;2023-07-09T00:55:02;5.55;;;2.53;;
65373;SDS011;52070;53.760;9.678;2023-07-09T00:57:33;8.18;;;2.55;;
65373;SDS011;52070;53.760;9.678;2023-07-09T01:00:08;3.85;;;2.25;;
65373;SDS011;52070;53.760;9.678;2023-07-09T01:02:40;5.97;;;2.40;;
65373;SDS011;52070;53.760;9.678;2023-07-09T01:05:12;5.15;;;2.22;;
65373;SDS011;52070;53.760;9.678;2023-07-09T01:07:43;6.97;;;2.80;;
65373;SDS011;52070;53.760;9.678;2023-07-09T01:10:11;6.35;;;2.63;;
65373;SDS011;52070;53.760;9.678;2023-07-09T01:12:39;4.88;;;2.60;;
65373;SDS011;52070;53.760;9.678;2023-07-09T01:15:09;8.85;;;2.70;;
65373;SDS011;52070;53.760;9.678;2023-07-09T01:17:36;6.35;;;2.63;;
65373;SDS011;52070;53.760;9.678;2023-07-09T01:20:06;4.20;;;2.42;;
65373;SDS011;52070;53.760;9.678;2023-07-09T01:25:03;12.35;;;2.75;;
65373;SDS011;52070;53.760;9.678;2023-07-09T01:27:33;7.03;;;2.70;;
65373;SDS011;52070;53.760;9.678;2023-07-09T01:30:04;5.38;;;2.38;;
65373;SDS011;52070;53.760;9.678;2023-07-09T01:35:01;11.95;;;2.65;;
65373;SDS011;52070;53.760;9.678;2023-07-09T01:37:32;6.70;;;2.55;;
65373;SDS011;52070;53.760;9.678;2023-07-09T01:40:03;4.07;;;2.60;;
65373;SDS011;52070;53.760;9.678;2023-07-09T01:44:59;4.90;;;2.50;;
65373;SDS011;52070;53.760;9.678;2023-07-09T01:47:27;11.63;;;3.05;;
65373;SDS011;52070;53.760;9.678;2023-07-09T01:49:54;6.43;;;2.38;;
65373;SDS011;52070;53.760;9.678;2023-07-09T01:52:22;3.15;;;2.40;;
65373;SDS011;52070;53.760;9.678;2023-07-09T01:54:52;6.55;;;2.30;;
65373;SDS011;52070;53.760;9.678;2023-07-09T01:57:21;3.85;;;2.30;;
65373;SDS011;52070;53.760;9.678;2023-07-09T01:59:50;6.10;;;2.30;;
65373;SDS011;52070;53.760;9.678;2023-07-09T02:02:18;3.92;;;2.30;;
65373;SDS011;52070;53.760;9.678;2023-07-09T02:04:46;4.03;;;2.35;;
65373;SDS011;52070;53.760;9.678;2023-07-09T02:07:13;6.07;;;2.50;;
65373;SDS011;52070;53.760;9.678;2023-07-09T02:09:41;5.10;;;2.42;;
65373;SDS011;52070;53.760;9.678;2023-07-09T02:12:09;9.63;;;2.60;;
65373;SDS011;52070;53.760;9.678;2023-07-09T02:14:38;3.38;;;2.00;;
65373;SDS011;52070;53.760;9.678;2023-07-09T02:17:06;2.95;;;2.30;;
65373;SDS011;52070;53.760;9.678;2023-07-09T02:19:33;7.22;;;2.60;;
65373;SDS011;52070;53.760;9.678;2023-07-09T02:22:00;4.35;;;2.20;;
65373;SDS011;52070;53.760;9.678;2023-07-09T02:24:27;5.45;;;2.55;;
65373;SDS011;52070;53.760;9.678;2023-07-09T02:26:55;6.93;;;2.47;;
65373;SDS011;52070;53.760;9.678;2023-07-09T02:29:22;4.47;;;2.30;;
65373;SDS011;52070;53.760;9.678;2023-07-09T02:31:51;4.40;;;2.28;;
65373;SDS011;52070;53.760;9.678;2023-07-09T02:34:19;5.97;;;2.60;;
65373;SDS011;52070;53.760;9.678;2023-07-09T02:36:51;4.43;;;2.45;;
65373;SDS011;52070;53.760;9.678;2023-07-09T02:39:18;7.47;;;2.63;;
65373;SDS011;52070;53.760;9.678;2023-07-09T02:41:45;7.38;;;2.47;;
65373;SDS011;52070;53.760;9.678;2023-07-09T02:44:13;5.75;;;2.63;;
65373;SDS011;52070;53.760;9.678;2023-07-09T02:46:40;5.35;;;2.30;;
65373;SDS011;52070;53.760;9.678;2023-07-09T02:49:09;4.18;;;2.30;;
65373;SDS011;52070;53.760;9.678;2023-07-09T02:51:38;6.63;;;2.50;;
65373;SDS011;52070;53.760;9.678;2023-07-09T02:54:06;3.45;;;2.40;;
65373;SDS011;52070;53.760;9.678;2023-07-09T02:56:33;5.70;;;2.60;;
65373;SDS011;52070;53.760;9.678;2023-07-09T02:59:00;4.35;;;2.30;;
65373;SDS011;52070;53.760;9.678;2023-07-09T03:01:27;5.30;;;2.40;;
65373;SDS011;52070;53.760;9.678;2023-07-09T03:03:54;6.45;;;2.40;;
65373;SDS011;52070;53.760;9.678;2023-07-09T03:06:23;4.15;;;2.42;;
65373;SDS011;52070;53.760;9.678;2023-07-09T03:08:51;6.60;;;2.83;;
65373;SDS011;52070;53.760;9.678;2023-07-09T03:11:18;4.70;;;2.60;;
65373;SDS011;52070;53.760;9.678;2023-07-09T03:13:46;5.55;;;2.63;;
65373;SDS011;52070;53.760;9.678;2023-07-09T03:16:14;4.15;;;2.72;;
65373;SDS011;52070;53.760;9.678;2023-07-09T03:18:44;2.75;;;2.28;;
65373;SDS011;52070;53.760;9.678;2023-07-09T03:21:11;5.90;;;2.72;;
65373;SDS011;52070;53.760;9.678;2023-07-09T03:23:40;2.65;;;2.03;;
65373;SDS011;52070;53.760;9.678;2023-07-09T03:26:07;6.63;;;2.80;;
65373;SDS011;52070;53.760;9.678;2023-07-09T03:28:34;4.35;;;2.80;;
65373;SDS011;52070;53.760;9.678;2023-07-09T03:31:01;4.10;;;2.53;;
65373;SDS011;52070;53.760;9.678;2023-07-09T03:33:28;6.15;;;2.72;;
65373;SDS011;52070;53.760;9.678;2023-07-09T03:35:55;6.97;;;2.50;;
65373;SDS011;52070;53.760;9.678;2023-07-09T03:38:22;4.35;;;2.58;;
65373;SDS011;52070;53.760;9.678;2023-07-09T03:40:51;8.05;;;3.08;;
65373;SDS011;52070;53.760;9.678;2023-07-09T03:43:19;5.80;;;2.63;;
65373;SDS011;52070;53.760;9.678;2023-07-09T03:45:46;4.75;;;2.65;;
65373;SDS011;52070;53.760;9.678;2023-07-09T03:48:14;5.22;;;2.60;;
65373;SDS011;52070;53.760;9.678;2023-07-09T03:50:43;4.90;;;2.45;;
65373;SDS011;52070;53.760;9.678;2023-07-09T03:53:11;5.50;;;2.67;;
65373;SDS011;52070;53.760;9.678;2023-07-09T03:55:39;4.70;;;2.53;;
65373;SDS011;52070;53.760;9.678;2023-07-09T03:58:09;5.63;;;3.10;;
65373;SDS011;52070;53.760;9.678;2023-07-09T04:03:03;6.82;;;2.92;;
65373;SDS011;52070;53.760;9.678;2023-07-09T04:05:34;4.60;;;2.60;;
65373;SDS011;52070;53.760;9.678;2023-07-09T04:08:01;5.18;;;2.83;;
65373;SDS011;52070;53.760;9.678;2023-07-09T04:10:28;4.95;;;2.83;;
65373;SDS011;52070;53.760;9.678;2023-07-09T04:12:55;4.47;;;2.92;;
65373;SDS011;52070;53.760;9.678;2023-07-09T04:15:23;8.73;;;2.85;;
65373;SDS011;52070;53.760;9.678;2023-07-09T04:17:50;4.70;;;2.67;;
65373;SDS011;52070;53.760;9.678;2023-07-09T04:20:17;5.00;;;2.72;;
65373;SDS011;52070;53.760;9.678;2023-07-09T04:22:44;7.20;;;2.90;;
65373;SDS011;52070;53.760;9.678;2023-07-09T04:25:12;4.53;;;2.70;;
65373;SDS011;52070;53.760;9.678;2023-07-09T04:27:39;3.65;;;2.55;;
65373;SDS011;52070;53.760;9.678;2023-07-09T04:30:08;6.35;;;2.80;;
65373;SDS011;52070;53.760;9.678;2023-07-09T04:32:38;4.28;;;2.65;;
65373;SDS011;52070;53.760;9.678;2023-07-09T04:35:05;6.18;;;2.45;;
65373;SDS011;52070;53.760;9.678;2023-07-09T04:37:32;3.92;;;2.65;;
65373;SDS011;52070;53.760;9.678;2023-07-09T04:39:59;4.60;;;2.40;;
65373;SDS011;52070;53.760;9.678;2023-07-09T04:42:27;3.92;;;2.92;;
65373;SDS011;52070;53.760;9.678;2023-07-09T04:44:54;3.47;;;2.50;;
65373;SDS011;52070;53.760;9.678;2023-07-09T04:47:20;3.00;;;2.55;;
65373;SDS011;52070;53.760;9.678;2023-07-09T04:49:49;5.93;;;2.80;;
65373;SDS011;52070;53.760;9.678;2023-07-09T04:52:16;6.50;;;2.65;;
65373;SDS011;52070;53.760;9.678;2023-07-09T04:54:43;4.78;;;2.83;;
65373;SDS011;52070;53.760;9.678;2023-07-09T04:57:10;4.75;;;2.58;;
65373;SDS011;52070;53.760;9.678;2023-07-09T04:59:37;8.30;;;2.63;;
65373;SDS011;52070;53.760;9.678;2023-07-09T05:02:05;3.35;;;2.33;;
65373;SDS011;52070;53.760;9.678;2023-07-09T05:04:32;5.07;;;2.65;;
65373;SDS011;52070;53.760;9.678;2023-07-09T05:07:01;5.05;;;2.60;;
65373;SDS011;52070;53.760;9.678;2023-07-09T05:09:28;5.47;;;2.60;;
65373;SDS011;52070;53.760;9.678;2023-07-09T05:11:55;3.38;;;2.40;;
65373;SDS011;52070;53.760;9.678;2023-07-09T05:14:22;4.93;;;2.40;;
65373;SDS011;52070;53.760;9.678;2023-07-09T05:16:49;5.07;;;2.40;;
65373;SDS011;52070;53.760;9.678;2023-07-09T05:19:16;4.43;;;2.53;;
65373;SDS011;52070;53.760;9.678;2023-07-09T05:21:42;4.78;;;2.75;;
65373;SDS011;52070;53.760;9.678;2023-07-09T05:24:11;6.70;;;2.35;;
65373;SDS011;52070;53.760;9.678;2023-07-09T05:26:38;4.50;;;2.55;;
65373;SDS011;52070;53.760;9.678;2023-07-09T05:29:05;2.90;;;2.40;;
65373;SDS011;52070;53.760;9.678;2023-07-09T05:31:32;5.22;;;2.30;;
65373;SDS011;52070;53.760;9.678;2023-07-09T05:33:59;3.63;;;2.50;;
65373;SDS011;52070;53.760;9.678;2023-07-09T05:36:26;3.75;;;2.20;;
65373;SDS011;52070;53.760;9.678;2023-07-09T05:38:54;2.63;;;2.20;;
65373;SDS011;52070;53.760;9.678;2023-07-09T05:41:23;4.13;;;2.28;;
65373;SDS011;52070;53.760;9.678;2023-07-09T05:43:50;7.28;;;2.30;;
65373;SDS011;52070;53.760;9.678;2023-07-09T05:46:18;5.65;;;2.25;;
65373;SDS011;52070;53.760;9.678;2023-07-09T05:48:46;4.03;;;2.22;;
65373;SDS011;52070;53.760;9.678;2023-07-09T05:51:13;3.88;;;2.25;;
65373;SDS011;52070;53.760;9.678;2023-07-09T05:53:40;3.95;;;2.25;;
65373;SDS011;52070;53.760;9.678;2023-07-09T05:56:07;5.38;;;2.33;;
65373;SDS011;52070;53.760;9.678;2023-07-09T05:58:36;3.75;;;2.10;;
65373;SDS011;52070;53.760;9.678;2023-07-09T06:01:03;4.55;;;2.20;;
65373;SDS011;52070;53.760;9.678;2023-07-09T06:03:30;2.97;;;2.10;;
65373;SDS011;52070;53.760;9.678;2023-07-09T06:05:59;6.88;;;2.40;;
65373;SDS011;52070;53.760;9.678;2023-07-09T06:08:26;4.68;;;2.35;;
65373;SDS011;52070;53.760;9.678;2023-07-09T06:10:54;5.93;;;2.47;;
65373;SDS011;52070;53.760;9.678;2023-07-09T06:13:22;4.00;;;2.25;;
65373;SDS011;52070;53.760;9.678;2023-07-09T06:15:51;4.78;;;2.42;;
65373;SDS011;52070;53.760;9.678;2023-07-09T06:18:19;5.93;;;2.47;;
65373;SDS011;52070;53.760;9.678;2023-07-09T06:20:47;4.72;;;2.50;;
65373;SDS011;52070;53.760;9.678;2023-07-09T06:23:15;4.35;;;2.30;;
65373;SDS011;52070;53.760;9.678;2023-07-09T06:25:42;4.80;;;2.40;;
65373;SDS011;52070;53.760;9.678;2023-07-09T06:28:13;5.10;;;2.28;;
65373;SDS011;52070;53.760;9.678;2023-07-09T06:30:40;4.90;;;2.47;;
65373;SDS011;52070;53.760;9.678;2023-07-09T06:33:09;9.55;;;2.63;;
65373;SDS011;52070;53.760;9.678;2023-07-09T06:35:37;4.53;;;2.53;;
65373;SDS011;52070;53.760;9.678;2023-07-09T06:38:05;3.63;;;2.60;;
65373;SDS011;52070;53.760;9.678;2023-07-09T06:40:42;4.45;;;2.30;;
65373;SDS011;52070;53.760;9.678;2023-07-09T06:43:26;6.15;;;2.90;;
65373;SDS011;52070;53.760;9.678;2023-07-09T06:45:54;4.43;;;2.55;;
65373;SDS011;52070;53.760;9.678;2023-07-09T06:48:24;4.15;;;2.10;;
65373;SDS011;52070;53.760;9.678;2023-07-09T06:50:52;4.13;;;2.38;;
65373;SDS011;52070;53.760;9.678;2023-07-09T06:53:20;4.32;;;2.30;;
65373;SDS011;52070;53.760;9.678;2023-07-09T06:55:48;4.68;;;2.50;;
65373;SDS011;52070;53.760;9.678;2023-07-09T06:58:16;4.43;;;2.50;;
65373;SDS011;52070;53.760;9.678;2023-07-09T07:00:43;3.88;;;2.30;;
65373;SDS011;52070;53.760;9.678;2023-07-09T07:03:10;2.78;;;2.35;;
65373;SDS011;52070;53.760;9.678;2023-07-09T07:05:42;5.47;;;2.95;;
65373;SDS011;52070;53.760;9.678;2023-07-09T07:08:10;4.95;;;2.65;;
65373;SDS011;52070;53.760;9.678;2023-07-09T07:10:37;4.88;;;2.60;;
65373;SDS011;52070;53.760;9.678;2023-07-09T07:13:04;4.60;;;2.47;;
65373;SDS011;52070;53.760;9.678;2023-07-09T07:15:31;5.85;;;2.60;;
65373;SDS011;52070;53.760;9.678;2023-07-09T07:17:58;9.10;;;2.70;;
65373;SDS011;52070;53.760;9.678;2023-07-09T07:20:25;10.02;;;2.85;;
65373;SDS011;52070;53.760;9.678;2023-07-09T07:22:53;4.00;;;2.70;;
65373;SDS011;52070;53.760;9.678;2023-07-09T07:25:20;4.15;;;2.40;;
65373;SDS011;52070;53.760;9.678;2023-07-09T07:27:47;4.03;;;2.42;;
65373;SDS011;52070;53.760;9.678;2023-07-09T07:30:14;3.28;;;2.65;;
65373;SDS011;52070;53.760;9.678;2023-07-09T07:32:43;3.72;;;2.70;;
65373;SDS011;52070;53.760;9.678;2023-07-09T07:35:12;5.05;;;2.80;;
65373;SDS011;52070;53.760;9.678;2023-07-09T07:37:39;2.92;;;2.63;;
65373;SDS011;52070;53.760;9.678;2023-07-09T07:40:08;4.03;;;2.50;;
65373;SDS011;52070;53.760;9.678;2023-07-09T07:42:36;5.97;;;3.00;;
65373;SDS011;52070;53.760;9.678;2023-07-09T07:45:03;7.18;;;2.58;;
65373;SDS011;52070;53.760;9.678;2023-07-09T07:47:32;6.30;;;2.90;;
65373;SDS011;52070;53.760;9.678;2023-07-09T07:49:59;3.35;;;2.70;;
65373;SDS011;52070;53.760;9.678;2023-07-09T07:52:27;4.55;;;2.67;;
65373;SDS011;52070;53.760;9.678;2023-07-09T07:54:54;4.50;;;2.90;;
65373;SDS011;52070;53.760;9.678;2023-07-09T07:57:23;5.65;;;2.60;;
65373;SDS011;52070;53.760;9.678;2023-07-09T07:59:51;6.32;;;2.33;;
65373;SDS011;52070;53.760;9.678;2023-07-09T08:02:18;6.38;;;3.05;;
65373;SDS011;52070;53.760;9.678;2023-07-09T08:04:45;4.90;;;2.88;;
65373;SDS011;52070;53.760;9.678;2023-07-09T08:07:12;6.95;;;2.60;;
65373;SDS011;52070;53.760;9.678;2023-07-09T08:09:42;5.35;;;2.83;;
65373;SDS011;52070;53.760;9.678;2023-07-09T08:12:09;5.47;;;2.45;;
65373;SDS011;52070;53.760;9.678;2023-07-09T08:14:39;5.15;;;2.50;;
65373;SDS011;52070;53.760;9.678;2023-07-09T08:17:07;4.05;;;2.70;;
65373;SDS011;52070;53.760;9.678;2023-07-09T08:19:43;3.42;;;2.70;;
65373;SDS011;52070;53.760;9.678;2023-07-09T08:22:11;5.80;;;2.60;;
65373;SDS011;52070;53.760;9.678;2023-07-09T08:24:38;6.53;;;2.85;;
65373;SDS011;52070;53.760;9.678;2023-07-09T08:27:06;4.57;;;2.70;;
65373;SDS011;52070;53.760;9.678;2023-07-09T08:29:33;6.53;;;3.00;;
65373;SDS011;52070;53.760;9.678;2023-07-09T08:32:02;9.10;;;2.97;;
65373;SDS011;52070;53.760;9.678;2023-07-09T08:34:30;4.80;;;3.23;;
65373;SDS011;52070;53.760;9.678;2023-07-09T08:36:57;3.25;;;2.63;;
65373;SDS011;52070;53.760;9.678;2023-07-09T08:39:24;4.10;;;2.58;;
65373;SDS011;52070;53.760;9.678;2023-07-09T08:41:52;4.22;;;2.60;;
65373;SDS011;52070;53.760;9.678;2023-07-09T08:44:33;5.38;;;2.80;;
65373;SDS011;52070;53.760;9.678;2023-07-09T08:47:14;4.93;;;2.80;;
65373;SDS011;52070;53.760;9.678;2023-07-09T08:49:46;7.43;;;2.80;;
65373;SDS011;52070;53.760;9.678;2023-07-09T08:52:20;4.75;;;2.72;;
65373;SDS011;52070;53.760;9.678;2023-07-09T08:54:52;3.92;;;2.50;;
65373;SDS011;52070;53.760;9.678;2023-07-09T08:57:23;2.90;;;2.50;;
65373;SDS011;52070;53.760;9.678;2023-07-09T08:59:53;5.65;;;2.83;;
65373;SDS011;52070;53.760;9.678;2023-07-09T09:02:30;3.50;;;2.70;;
65373;SDS011;52070;53.760;9.678;2023-07-09T09:05:02;5.65;;;2.78;;
65373;SDS011;52070;53.760;9.678;2023-07-09T09:07:33;4.68;;;2.88;;
65373;SDS011;52070;53.760;9.678;2023-07-09T09:10:07;4.38;;;3.05;;
65373;SDS011;52070;53.760;9.678;2023-07-09T09:12:52;5.90;;;3.13;;
65373;SDS011;52070;53.760;9.678;2023-07-09T09:18:09;5.28;;;2.90;;
65373;SDS011;52070;53.760;9.678;2023-07-09T09:20:45;5.05;;;3.00;;
65373;SDS011;52070;53.760;9.678;2023-07-09T09:23:18;3.45;;;2.58;;
65373;SDS011;52070;53.760;9.678;2023-07-09T09:25:47;5.72;;;2.80;;
65373;SDS011;52070;53.760;9.678;2023-07-09T09:28:18;4.93;;;2.85;;
65373;SDS011;52070;53.760;9.678;2023-07-09T09:30:45;7.43;;;2.90;;
65373;SDS011;52070;53.760;9.678;2023-07-09T09:33:13;10.00;;;3.30;;
65373;SDS011;52070;53.760;9.678;2023-07-09T09:35:44;5.65;;;3.20;;
65373;SDS011;52070;53.760;9.678;2023-07-09T09:38:15;7.03;;;3.75;;
65373;SDS011;52070;53.760;9.678;2023-07-09T09:40:43;4.65;;;2.75;;
65373;SDS011;52070;53.760;9.678;2023-07-09T09:43:11;7.13;;;3.35;;
65373;SDS011;52070;53.760;9.678;2023-07-09T09:45:41;5.70;;;2.90;;
65373;SDS011;52070;53.760;9.678;2023-07-09T09:48:13;4.15;;;3.10;;
65373;SDS011;52070;53.760;9.678;2023-07-09T09:50:44;5.60;;;3.00;;
65373;SDS011;52070;53.760;9.678;2023-07-09T09:53:16;14.65;;;3.58;;
65373;SDS011;52070;53.760;9.678;2023-07-09T09:55:47;4.50;;;2.88;;
65373;SDS011;52070;53.760;9.678;2023-07-09T09:58:16;4.47;;;2.80;;
65373;SDS011;52070;53.760;9.678;2023-07-09T10:00:47;5.32;;;2.60;;
65373;SDS011;52070;53.760;9.678;2023-07-09T10:03:17;7.20;;;2.88;;
65373;SDS011;52070;53.760;9.678;2023-07-09T10:05:47;3.80;;;2.90;;
65373;SDS011;52070;53.760;9.678;2023-07-09T10:08:20;4.25;;;3.00;;
65373;SDS011;52070;53.760;9.678;2023-07-09T10:11:07;5.40;;;3.15;;
65373;SDS011;52070;53.760;9.678;2023-07-09T10:13:41;4.60;;;3.03;;
65373;SDS011;52070;53.760;9.678;2023-07-09T10:18:48;4.20;;;3.00;;
65373;SDS011;52070;53.760;9.678;2023-07-09T10:21:21;4.00;;;3.10;;
65373;SDS011;52070;53.760;9.678;2023-07-09T10:24:00;6.13;;;2.97;;
65373;SDS011;52070;53.760;9.678;2023-07-09T10:26:39;4.40;;;3.17;;
65373;SDS011;52070;53.760;9.678;2023-07-09T10:29:17;5.68;;;3.10;;
65373;SDS011;52070;53.760;9.678;2023-07-09T10:31:54;5.13;;;3.25;;
65373;SDS011;52070;53.760;9.678;2023-07-09T10:34:32;4.25;;;2.70;;
65373;SDS011;52070;53.760;9.678;2023-07-09T10:37:13;4.63;;;3.10;;
65373;SDS011;52070;53.760;9.678;2023-07-09T10:39:47;6.22;;;3.13;;
65373;SDS011;52070;53.760;9.678;2023-07-09T10:42:17;6.22;;;3.08;;
65373;SDS011;52070;53.760;9.678;2023-07-09T10:44:51;5.05;;;2.83;;
65373;SDS011;52070;53.760;9.678;2023-07-09T10:47:25;4.45;;;3.17;;
65373;SDS011;52070;53.760;9.678;2023-07-09T10:50:09;6.80;;;3.08;;
65373;SDS011;52070;53.760;9.678;2023-07-09T10:52:41;5.03;;;3.20;;
65373;SDS011;52070;53.760;9.678;2023-07-09T10:55:15;3.08;;;2.85;;
65373;SDS011;52070;53.760;9.678;2023-07-09T10:57:48;5.13;;;2.88;;
65373;SDS011;52070;53.760;9.678;2023-07-09T11:00:25;3.92;;;3.10;;
65373;SDS011;52070;53.760;9.678;2023-07-09T11:02:59;7.15;;;3.08;;
65373;SDS011;52070;53.760;9.678;2023-07-09T11:05:31;5.47;;;3.10;;
65373;SDS011;52070;53.760;9.678;2023-07-09T11:08:00;4.88;;;3.13;;
65373;SDS011;52070;53.760;9.678;2023-07-09T11:10:32;4.32;;;3.05;;
65373;SDS011;52070;53.760;9.678;2023-07-09T11:13:05;4.57;;;3.17;;
65373;SDS011;52070;53.760;9.678;2023-07-09T11:15:39;7.03;;;3.10;;
65373;SDS011;52070;53.760;9.678;2023-07-09T11:18:11;7.63;;;3.00;;
65373;SDS011;52070;53.760;9.678;2023-07-09T11:20:47;8.40;;;3.30;;
65373;SDS011;52070;53.760;9.678;2023-07-09T11:23:24;6.65;;;3.10;;
65373;SDS011;52070;53.760;9.678;2023-07-09T11:26:00;6.75;;;3.20;;
65373;SDS011;52070;53.760;9.678;2023-07-09T11:28:35;6.65;;;3.13;;
65373;SDS011;52070;53.760;9.678;2023-07-09T11:31:05;6.72;;;3.30;;
65373;SDS011;52070;53.760;9.678;2023-07-09T11:33:45;6.43;;;3.13;;
65373;SDS011;52070;53.760;9.678;2023-07-09T11:36:23;6.15;;;3.22;;
65373;SDS011;52070;53.760;9.678;2023-07-09T11:38:51;6.57;;;3.28;;
65373;SDS011;52070;53.760;9.678;2023-07-09T11:41:25;3.20;;;2.83;;
65373;SDS011;52070;53.760;9.678;2023-07-09T11:44:03;4.50;;;3.00;;
65373;SDS011;52070;53.760;9.678;2023-07-09T11:46:40;5.60;;;3.20;;
65373;SDS011;52070;53.760;9.678;2023-07-09T11:49:15;6.03;;;3.22;;
65373;SDS011;52070;53.760;9.678;2023-07-09T11:54:17;3.28;;;2.85;;
65373;SDS011;52070;53.760;9.678;2023-07-09T11:59:19;6.22;;;3.40;;
65373;SDS011;52070;53.760;9.678;2023-07-09T12:01:46;3.70;;;3.30;;
65373;SDS011;52070;53.760;9.678;2023-07-09T12:04:20;6.75;;;3.45;;
65373;SDS011;52070;53.760;9.678;2023-07-09T12:06:51;4.85;;;3.40;;
65373;SDS011;52070;53.760;9.678;2023-07-09T12:09:30;5.50;;;3.40;;
65373;SDS011;52070;53.760;9.678;2023-07-09T12:11:58;10.73;;;3.10;;
65373;SDS011;52070;53.760;9.678;2023-07-09T12:14:25;8.88;;;3.65;;
65373;SDS011;52070;53.760;9.678;2023-07-09T12:16:53;5.47;;;3.50;;
65373;SDS011;52070;53.760;9.678;2023-07-09T12:19:21;3.40;;;2.90;;
65373;SDS011;52070;53.760;9.678;2023-07-09T12:21:52;6.60;;;3.35;;
65373;SDS011;52070;53.760;9.678;2023-07-09T12:24:22;7.50;;;3.85;;
65373;SDS011;52070;53.760;9.678;2023-07-09T12:26:55;5.65;;;3.30;;
65373;SDS011;52070;53.760;9.678;2023-07-09T12:29:24;5.57;;;3.20;;
65373;SDS011;52070;53.760;9.678;2023-07-09T12:31:52;7.40;;;3.45;;
65373;SDS011;52070;53.760;9.678;2023-07-09T12:34:19;5.22;;;3.40;;
65373;SDS011;52070;53.760;9.678;2023-07-09T12:36:46;4.47;;;3.42;;
65373;SDS011;52070;53.760;9.678;2023-07-09T12:39:24;6.03;;;3.67;;
65373;SDS011;52070;53.760;9.678;2023-07-09T12:41:54;4.85;;;3.42;;
65373;SDS011;52070;53.760;9.678;2023-07-09T12:44:23;5.07;;;3.28;;
65373;SDS011;52070;53.760;9.678;2023-07-09T12:46:52;4.28;;;3.50;;
65373;SDS011;52070;53.760;9.678;2023-07-09T12:49:21;4.78;;;3.22;;
65373;SDS011;52070;53.760;9.678;2023-07-09T12:51:49;5.07;;;3.60;;
65373;SDS011;52070;53.760;9.678;2023-07-09T12:54:19;4.32;;;3.42;;
65373;SDS011;52070;53.760;9.678;2023-07-09T12:56:50;6.95;;;3.53;;
65373;SDS011;52070;53.760;9.678;2023-07-09T12:59:19;6.60;;;3.53;;
65373;SDS011;52070;53.760;9.678;2023-07-09T13:01:48;5.47;;;3.35;;
65373;SDS011;52070;53.760;9.678;2023-07-09T13:04:17;7.60;;;3.58;;
65373;SDS011;52070;53.760;9.678;2023-07-09T13:06:44;4.35;;;3.17;;
65373;SDS011;52070;53.760;9.678;2023-07-09T13:09:15;5.30;;;3.40;;
65373;SDS011;52070;53.760;9.678;2023-07-09T13:11:50;5.03;;;3.53;;
65373;SDS011;52070;53.760;9.678;2023-07-09T13:14:19;9.27;;;3.67;;
65373;SDS011;52070;53.760;9.678;2023-07-09T13:16:48;7.47;;;3.60;;
65373;SDS011;52070;53.760;9.678;2023-07-09T13:19:15;6.38;;;3.38;;
65373;SDS011;52070;53.760;9.678;2023-07-09T13:21:42;8.52;;;3.72;;
65373;SDS011;52070;53.760;9.678;2023-07-09T13:24:17;7.10;;;3.88;;
65373;SDS011;52070;53.760;9.678;2023-07-09T13:26:49;4.93;;;3.78;;
65373;SDS011;52070;53.760;9.678;2023-07-09T13:29:17;5.85;;;3.60;;
65373;SDS011;52070;53.760;9.678;2023-07-09T13:31:45;8.35;;;4.10;;
65373;SDS011;52070;53.760;9.678;2023-07-09T13:34:19;8.65;;;4.10;;
65373;SDS011;52070;53.760;9.678;2023-07-09T13:36:48;6.45;;;3.75;;
65373;SDS011;52070;53.760;9.678;2023-07-09T13:39:15;7.97;;;3.67;;
65373;SDS011;52070;53.760;9.678;2023-07-09T13:41:43;6.28;;;3.30;;
65373;SDS011;52070;53.760;9.678;2023-07-09T13:44:13;6.03;;;3.58;;
65373;SDS011;52070;53.760;9.678;2023-07-09T13:46:42;6.25;;;3.70;;
65373;SDS011;52070;53.760;9.678;2023-07-09T13:49:09;5.15;;;3.55;;
65373;SDS011;52070;53.760;9.678;2023-07-09T13:51:39;7.45;;;3.50;;
65373;SDS011;52070;53.760;9.678;2023-07-09T13:54:12;6.25;;;3.80;;
65373;SDS011;52070;53.760;9.678;2023-07-09T13:56:41;5.20;;;3.60;;
65373;SDS011;52070;53.760;9.678;2023-07-09T13:59:14;7.93;;;3.50;;
65373;SDS011;52070;53.760;9.678;2023-07-09T14:01:43;5.05;;;3.70;;
65373;SDS011;52070;53.760;9.678;2023-07-09T14:04:11;5.03;;;3.55;;
65373;SDS011;52070;53.760;9.678;2023-07-09T14:06:40;5.57;;;3.40;;
65373;SDS011;52070;53.760;9.678;2023-07-09T14:09:12;7.65;;;3.65;;
65373;SDS011;52070;53.760;9.678;2023-07-09T14:14:13;4.78;;;3.20;;
65373;SDS011;52070;53.760;9.678;2023-07-09T14:16:44;6.78;;;3.47;;
65373;SDS011;52070;53.760;9.678;2023-07-09T14:19:12;6.72;;;4.13;;
65373;SDS011;52070;53.760;9.678;2023-07-09T14:21:42;9.15;;;3.97;;
65373;SDS011;52070;53.760;9.678;2023-07-09T14:24:17;9.48;;;3.70;;
65373;SDS011;52070;53.760;9.678;2023-07-09T14:26:46;7.97;;;3.78;;
65373;SDS011;52070;53.760;9.678;2023-07-09T14:29:15;6.45;;;3.65;;
65373;SDS011;52070;53.760;9.678;2023-07-09T14:31:44;5.40;;;3.72;;
65373;SDS011;52070;53.760;9.678;2023-07-09T14:34:16;4.68;;;3.30;;
65373;SDS011;52070;53.760;9.678;2023-07-09T14:36:46;5.93;;;3.83;;
65373;SDS011;52070;53.760;9.678;2023-07-09T14:39:13;6.30;;;3.47;;
65373;SDS011;52070;53.760;9.678;2023-07-09T14:41:41;6.43;;;3.70;;
65373;SDS011;52070;53.760;9.678;2023-07-09T14:44:15;6.70;;;4.07;;
65373;SDS011;52070;53.760;9.678;2023-07-09T14:46:50;5.28;;;4.07;;
65373;SDS011;52070;53.760;9.678;2023-07-09T14:49:19;7.00;;;3.78;;
65373;SDS011;52070;53.760;9.678;2023-07-09T14:51:47;7.53;;;3.95;;
65373;SDS011;52070;53.760;9.678;2023-07-09T14:54:18;5.65;;;3.85;;
65373;SDS011;52070;53.760;9.678;2023-07-09T14:56:50;6.82;;;3.40;;
65373;SDS011;52070;53.760;9.678;2023-07-09T14:59:18;5.72;;;3.95;;
65373;SDS011;52070;53.760;9.678;2023-07-09T15:01:46;7.00;;;3.70;;
65373;SDS011;52070;53.760;9.678;2023-07-09T15:04:31;6.90;;;3.50;;
65373;SDS011;52070;53.760;9.678;2023-07-09T15:07:02;8.50;;;3.70;;
65373;SDS011;52070;53.760;9.678;2023-07-09T15:09:29;5.75;;;3.88;;
65373;SDS011;52070;53.760;9.678;2023-07-09T15:11:57;7.15;;;3.70;;
65373;SDS011;52070;53.760;9.678;2023-07-09T15:14:26;7.43;;;3.60;;
65373;SDS011;52070;53.760;9.678;2023-07-09T15:16:54;5.15;;;3.90;;
65373;SDS011;52070;53.760;9.678;2023-07-09T15:19:22;5.32;;;3.53;;
65373;SDS011;52070;53.760;9.678;2023-07-09T15:21:49;6.43;;;3.67;;
65373;SDS011;52070;53.760;9.678;2023-07-09T15:24:19;5.53;;;3.60;;
65373;SDS011;52070;53.760;9.678;2023-07-09T15:26:51;5.32;;;3.63;;
65373;SDS011;52070;53.760;9.678;2023-07-09T15:29:20;5.88;;;3.92;;